createdAt,value
2023-02-09T00:01:31.550Z,101448.13
2023-02-09T00:04:00.852Z,101448.31
2023-02-09T00:06:29.877Z,101453.63
2023-02-09T00:08:58.674Z,101463.31
2023-02-09T00:11:47.766Z,101452.16
2023-02-09T00:14:19.202Z,101453.97
2023-02-09T00:16:48.605Z,101455.00
2023-02-09T00:19:15.699Z,101451.53
2023-02-09T00:21:42.683Z,101456.84
2023-02-09T00:24:13.263Z,101456.94
2023-02-09T00:26:41.506Z,101450.91
2023-02-09T00:29:09.420Z,101456.16
2023-02-09T00:31:36.987Z,101452.75
2023-02-09T00:34:05.026Z,101449.38
2023-02-09T00:36:32.430Z,101446.75
2023-02-09T00:38:59.876Z,101453.78
2023-02-09T00:41:45.280Z,101455.47
2023-02-09T00:44:12.500Z,101452.00
2023-02-09T00:46:39.540Z,101456.31
2023-02-09T00:49:06.743Z,101443.31
2023-02-09T00:51:34.480Z,101438.06
2023-02-09T00:54:03.320Z,101436.28
2023-02-09T00:56:30.389Z,101439.66
2023-02-09T00:58:57.315Z,101430.13
2023-02-09T01:01:25.421Z,101442.28
2023-02-09T01:03:53.365Z,101430.97
2023-02-09T01:06:21.026Z,101428.25
2023-02-09T01:08:48.110Z,101424.81
2023-02-09T01:11:16.057Z,101428.25
2023-02-09T01:13:43.765Z,101427.41
2023-02-09T01:16:15.319Z,101426.50
2023-02-09T01:18:43.266Z,101428.25
2023-02-09T01:21:16.989Z,101421.34
2023-02-09T01:23:44.966Z,101429.19
2023-02-09T01:26:13.252Z,101417.88
2023-02-09T01:28:40.982Z,101417.97
2023-02-09T01:31:28.944Z,101417.16
2023-02-09T01:33:58.464Z,101414.63
2023-02-09T01:36:28.906Z,101411.16
2023-02-09T01:39:01.292Z,101420.88
2023-02-09T01:41:28.539Z,101413.03
2023-02-09T01:44:24.623Z,101408.78
2023-02-09T01:46:51.574Z,101409.78
2023-02-09T01:49:23.438Z,101411.56
2023-02-09T01:52:06.082Z,101412.56
2023-02-09T01:54:37.704Z,101399.47
2023-02-09T01:57:18.724Z,101406.53
2023-02-09T01:59:53.773Z,101407.56
2023-02-09T02:02:22.399Z,101389.31
2023-02-09T02:04:51.157Z,101403.28
2023-02-09T02:07:30.294Z,101406.00
2023-02-09T02:10:00.959Z,101398.22
2023-02-09T02:12:28.136Z,101412.25
2023-02-09T02:14:55.093Z,101405.31
2023-02-09T02:17:47.672Z,101399.28
2023-02-09T02:20:48.111Z,101406.28
2023-02-09T02:24:19.281Z,101404.69
2023-02-09T02:26:57.955Z,101406.47
2023-02-09T02:29:59.430Z,101391.75
2023-02-09T02:32:51.200Z,101387.44
2023-02-09T02:35:58.019Z,101381.44
2023-02-09T02:38:54.360Z,101379.75
2023-02-09T02:41:30.380Z,101394.59
2023-02-09T02:44:17.263Z,101386.84
2023-02-09T02:46:52.662Z,101381.59
2023-02-09T02:49:53.134Z,101374.66
2023-02-09T02:52:20.062Z,101372.09
2023-02-09T02:54:57.251Z,101367.03
2023-02-09T02:57:31.244Z,101372.28
2023-02-09T03:00:06.474Z,101360.97
2023-02-09T03:02:40.150Z,101369.88
2023-02-09T03:05:08.495Z,101362.97
2023-02-09T03:07:35.484Z,101373.56
2023-02-09T03:10:03.407Z,101368.41
2023-02-09T03:13:03.876Z,101356.31
2023-02-09T03:16:03.656Z,101352.94
2023-02-09T03:18:56.934Z,101356.47
2023-02-09T03:21:41.301Z,101347.84
2023-02-09T03:24:37.503Z,101342.78
2023-02-09T03:27:25.179Z,101335.06
2023-02-09T03:29:59.086Z,101332.63
2023-02-09T03:32:27.259Z,101339.66
2023-02-09T03:34:56.059Z,101334.59
2023-02-09T03:37:23.854Z,101336.44
2023-02-09T03:39:50.769Z,101345.19
2023-02-09T03:42:17.724Z,101343.66
2023-02-09T03:44:44.633Z,101335.94
2023-02-09T03:47:11.711Z,101338.72
2023-02-09T03:49:41.419Z,101326.72
2023-02-09T03:52:13.236Z,101342.41
2023-02-09T03:54:40.428Z,101350.31
2023-02-09T03:57:07.848Z,101359.09
2023-02-09T03:59:38.096Z,101358.25
2023-02-09T04:02:07.581Z,101357.47
2023-02-09T04:04:34.652Z,101353.22
2023-02-09T04:07:01.576Z,101352.38
2023-02-09T04:09:28.718Z,101346.38
2023-02-09T04:11:55.992Z,101355.16
2023-02-09T04:14:24.218Z,101353.47
2023-02-09T04:16:51.153Z,101357.75
2023-02-09T04:19:18.067Z,101361.31
2023-02-09T04:21:45.008Z,101372.59
2023-02-09T04:24:12.083Z,101375.25
2023-02-09T04:26:39.092Z,101365.81
2023-02-09T04:29:06.084Z,101375.41
2023-02-09T04:31:34.730Z,101363.19
2023-02-09T04:34:01.847Z,101363.28
2023-02-09T04:36:29.005Z,101362.56
2023-02-09T04:38:56.065Z,101364.31
2023-02-09T04:41:23.208Z,101355.72
2023-02-09T04:43:50.224Z,101361.88
2023-02-09T04:46:19.043Z,101360.19
2023-02-09T04:48:46.724Z,101352.34
2023-02-09T04:51:13.931Z,101355.91
2023-02-09T04:53:40.848Z,101362.06
2023-02-09T04:56:08.345Z,101357.84
2023-02-09T04:59:10.355Z,101376.13
2023-02-09T05:01:37.259Z,101362.28
2023-02-09T05:04:04.312Z,101360.59
2023-02-09T05:06:31.237Z,101369.34
2023-02-09T05:08:58.171Z,101382.41
2023-02-09T05:11:25.733Z,101380.72
2023-02-09T05:13:52.715Z,101372.03
2023-02-09T05:16:19.694Z,101379.88
2023-02-09T05:18:46.756Z,101372.09
2023-02-09T05:21:14.323Z,101380.84
2023-02-09T05:23:41.763Z,101373.06
2023-02-09T05:26:09.016Z,101374.00
2023-02-09T05:28:36.395Z,101367.16
2023-02-09T05:31:03.510Z,101373.28
2023-02-09T05:33:30.524Z,101368.06
2023-02-09T05:35:57.416Z,101377.72
2023-02-09T05:38:24.503Z,101376.03
2023-02-09T05:40:51.658Z,101381.25
2023-02-09T05:43:18.908Z,101385.56
2023-02-09T05:45:46.657Z,101395.09
2023-02-09T05:48:13.705Z,101397.66
2023-02-09T05:50:40.711Z,101409.09
2023-02-09T05:53:09.270Z,101400.31
2023-02-09T05:55:36.235Z,101403.84
2023-02-09T05:58:03.274Z,101408.25
2023-02-09T06:00:30.391Z,101406.53
2023-02-09T06:02:58.486Z,101407.38
2023-02-09T06:05:25.907Z,101411.78
2023-02-09T06:07:53.126Z,101410.94
2023-02-09T06:10:20.261Z,101401.41
2023-02-09T06:12:47.349Z,101409.22
2023-02-09T06:15:16.174Z,101404.00
2023-02-09T06:17:43.323Z,101403.16
2023-02-09T06:20:11.195Z,101403.22
2023-02-09T06:22:38.112Z,101407.53
2023-02-09T06:25:05.416Z,101418.09
2023-02-09T06:27:32.349Z,101416.34
2023-02-09T06:29:59.386Z,101412.13
2023-02-09T06:32:26.330Z,101411.31
2023-02-09T06:34:53.286Z,101418.25
2023-02-09T06:37:20.207Z,101416.53
2023-02-09T06:39:47.109Z,101411.38
2023-02-09T06:42:14.010Z,101414.06
2023-02-09T06:44:40.925Z,101409.78
2023-02-09T06:47:07.872Z,101415.91
2023-02-09T06:49:34.769Z,101415.09
2023-02-09T06:52:01.948Z,101406.50
2023-02-09T06:54:29.268Z,101414.34
2023-02-09T06:56:56.222Z,101417.03
2023-02-09T06:59:23.451Z,101411.88
2023-02-09T07:01:54.602Z,101412.78
2023-02-09T07:04:22.260Z,101418.91
2023-02-09T07:06:49.310Z,101421.53
2023-02-09T07:09:16.455Z,101414.53
2023-02-09T07:11:43.768Z,101421.47
2023-02-09T07:14:10.774Z,101425.84
2023-02-09T07:16:37.676Z,101426.63
2023-02-09T07:19:04.582Z,101424.00
2023-02-09T07:21:31.534Z,101425.72
2023-02-09T07:23:58.481Z,101430.00
2023-02-09T07:26:25.507Z,101434.31
2023-02-09T07:28:52.459Z,101436.88
2023-02-09T07:31:19.614Z,101443.72
2023-02-09T07:33:47.005Z,101439.41
2023-02-09T07:36:16.249Z,101444.50
2023-02-09T07:38:43.795Z,101439.19
2023-02-09T07:41:22.085Z,101441.69
2023-02-09T07:43:49.080Z,101446.84
2023-02-09T07:46:19.374Z,101451.94
2023-02-09T07:48:46.890Z,101450.97
2023-02-09T07:51:16.269Z,101455.16
2023-02-09T07:53:43.560Z,101457.53
2023-02-09T07:56:10.469Z,101457.28
2023-02-09T07:58:37.430Z,101459.69
2023-02-09T08:01:08.380Z,101465.50
2023-02-09T08:03:36.922Z,101459.06
2023-02-09T08:06:19.587Z,101460.41
2023-02-09T08:08:49.799Z,101462.66
2023-02-09T08:11:32.655Z,101460.56
2023-02-09T08:14:06.127Z,101458.44
2023-02-09T08:16:34.421Z,101465.94
2023-02-09T08:19:08.778Z,101466.41
2023-02-09T08:21:39.724Z,101466.13
2023-02-09T08:24:07.658Z,101464.84
2023-02-09T08:26:35.643Z,101467.16
2023-02-09T08:29:03.230Z,101478.97
2023-02-09T08:31:30.356Z,101470.75
2023-02-09T08:33:57.325Z,101480.94
2023-02-09T08:36:24.307Z,101474.31
2023-02-09T08:38:51.284Z,101467.75
2023-02-09T08:41:18.575Z,101476.13
2023-02-09T08:43:50.096Z,101482.75
2023-02-09T08:46:18.035Z,101470.19
2023-02-09T08:48:47.055Z,101468.09
2023-02-09T08:51:15.871Z,101472.94
2023-02-09T08:53:43.954Z,101466.63
2023-02-09T08:56:10.878Z,101472.38
2023-02-09T08:58:37.955Z,101482.56
2023-02-09T09:01:05.570Z,101477.84
2023-02-09T09:03:32.805Z,101483.63
2023-02-09T09:06:06.189Z,101485.00
2023-02-09T09:08:35.654Z,101494.31
2023-02-09T09:11:02.630Z,101489.59
2023-02-09T09:13:29.759Z,101493.69
2023-02-09T09:15:56.681Z,101491.66
2023-02-09T09:18:26.470Z,101499.13
2023-02-09T09:20:56.086Z,101500.59
2023-02-09T09:23:23.580Z,101508.88
2023-02-09T09:25:50.609Z,101513.63
2023-02-09T09:28:17.574Z,101516.78
2023-02-09T09:30:44.576Z,101503.41
2023-02-09T09:33:11.608Z,101512.63
2023-02-09T09:35:38.672Z,101518.31
2023-02-09T09:38:05.597Z,101516.13
2023-02-09T09:40:37.291Z,101523.59
2023-02-09T09:43:14.896Z,101510.97
2023-02-09T09:45:42.003Z,101521.13
2023-02-09T09:48:25.747Z,101514.59
2023-02-09T09:51:15.694Z,101511.69
2023-02-09T09:53:46.891Z,101513.97
2023-02-09T09:56:15.166Z,101523.28
2023-02-09T09:58:44.864Z,101515.06
2023-02-09T10:01:18.137Z,101513.75
2023-02-09T10:03:45.357Z,101512.56
2023-02-09T10:06:19.394Z,101525.34
2023-02-09T10:09:07.828Z,101531.94
2023-02-09T10:11:45.707Z,101527.19
2023-02-09T10:14:12.650Z,101526.81
2023-02-09T10:16:40.630Z,101525.69
2023-02-09T10:19:23.629Z,101523.84
2023-02-09T10:21:50.621Z,101523.66
2023-02-09T10:24:30.731Z,101524.31
2023-02-09T10:27:14.713Z,101529.22
2023-02-09T10:29:42.506Z,101526.22
2023-02-09T10:32:38.836Z,101520.56
2023-02-09T10:35:29.322Z,101513.94
2023-02-09T10:38:02.316Z,101513.56
2023-02-09T10:40:33.167Z,101513.19
2023-02-09T10:43:09.739Z,101517.31
2023-02-09T10:45:46.606Z,101521.06
2023-02-09T10:48:13.571Z,101515.34
2023-02-09T10:51:01.789Z,101512.31
2023-02-09T10:53:37.695Z,101512.78
2023-02-09T10:56:22.464Z,101505.44
2023-02-09T10:59:00.261Z,101498.28
2023-02-09T11:01:34.449Z,101504.75
2023-02-09T11:04:16.902Z,101497.13
2023-02-09T11:07:10.130Z,101494.94
2023-02-09T11:09:44.376Z,101496.03
2023-02-09T11:12:12.982Z,101488.41
2023-02-09T11:14:42.446Z,101482.81
2023-02-09T11:17:30.818Z,101486.72
2023-02-09T11:20:32.060Z,101473.91
2023-02-09T11:23:33.308Z,101475.81
2023-02-09T11:26:35.747Z,101476.06
2023-02-09T11:29:24.194Z,101478.06
2023-02-09T11:32:47.407Z,101473.97
2023-02-09T11:35:18.912Z,101466.34
2023-02-09T11:38:05.963Z,101473.66
2023-02-09T11:40:49.093Z,101461.50
2023-02-09T11:43:36.336Z,101458.97
2023-02-09T11:46:17.255Z,101451.47
2023-02-09T11:49:04.062Z,101449.97
2023-02-09T11:51:38.169Z,101434.47
2023-02-09T11:54:22.228Z,101438.75
2023-02-09T11:57:11.730Z,101433.97
2023-02-09T11:59:49.586Z,101418.34
2023-02-09T12:02:53.921Z,101427.81
2023-02-09T12:05:22.616Z,101425.06
2023-02-09T12:08:22.317Z,101433.28
2023-02-09T12:11:15.591Z,101429.44
2023-02-09T12:14:12.791Z,101418.44
2023-02-09T12:16:49.510Z,101429.53
2023-02-09T12:19:34.202Z,101431.84
2023-02-09T12:22:35.190Z,101440.03
2023-02-09T12:25:16.701Z,101431.75
2023-02-09T12:28:10.265Z,101436.50
2023-02-09T12:30:40.127Z,101432.88
2023-02-09T12:33:31.237Z,101429.53
2023-02-09T12:36:10.183Z,101420.19
2023-02-09T12:38:56.856Z,101428.50
2023-02-09T12:41:41.059Z,101432.63
2023-02-09T12:44:11.058Z,101428.66
2023-02-09T12:46:55.628Z,101429.88
2023-02-09T12:49:28.690Z,101424.00
2023-02-09T12:52:01.756Z,101426.78
2023-02-09T12:54:48.029Z,101435.38
2023-02-09T12:57:15.958Z,101434.75
2023-02-09T13:00:00.709Z,101437.53
2023-02-09T13:02:52.478Z,101428.13
2023-02-09T13:05:42.034Z,101437.28
2023-02-09T13:08:13.089Z,101438.59
2023-02-09T13:10:44.149Z,101428.72
2023-02-09T13:13:10.939Z,101427.88
2023-02-09T13:16:37.049Z,101432.56
2023-02-09T13:19:10.004Z,101425.69
2023-02-09T13:22:05.400Z,101425.66
2023-02-09T13:24:44.785Z,101431.97
2023-02-09T13:27:25.252Z,101427.72
2023-02-09T13:29:55.307Z,101426.94
2023-02-09T13:32:40.691Z,101422.47
2023-02-09T13:35:32.884Z,101433.03
2023-02-09T13:38:15.816Z,101435.19
2023-02-09T13:40:50.804Z,101433.19
2023-02-09T13:43:40.172Z,101431.44
2023-02-09T13:46:07.171Z,101430.91
2023-02-09T13:48:38.055Z,101423.13
2023-02-09T13:51:18.543Z,101421.41
2023-02-09T13:54:03.128Z,101416.28
2023-02-09T13:56:32.309Z,101417.44
2023-02-09T13:59:00.215Z,101421.22
2023-02-09T14:01:36.523Z,101415.84
2023-02-09T14:04:05.373Z,101427.63
2023-02-09T14:07:11.456Z,101425.28
2023-02-09T14:09:50.061Z,101428.78
2023-02-09T14:12:49.582Z,101437.28
2023-02-09T14:15:37.013Z,101441.38
2023-02-09T14:18:20.068Z,101441.13
2023-02-09T14:21:22.930Z,101437.06
2023-02-09T14:24:20.198Z,101444.41
2023-02-09T14:26:53.104Z,101446.38
2023-02-09T14:29:37.992Z,101448.22
2023-02-09T14:32:40.280Z,101450.47
2023-02-09T14:35:30.089Z,101439.84
2023-02-09T14:38:00.449Z,101448.25
2023-02-09T14:40:27.526Z,101446.59
2023-02-09T14:43:27.226Z,101443.41
2023-02-09T14:46:01.801Z,101444.66
2023-02-09T14:48:30.420Z,101451.38
2023-02-09T14:51:10.163Z,101454.38
2023-02-09T14:53:37.197Z,101455.91
2023-02-09T14:56:04.362Z,101462.63
2023-02-09T14:58:33.723Z,101451.25
2023-02-09T15:01:02.754Z,101452.38
2023-02-09T15:03:29.791Z,101447.19
2023-02-09T15:06:02.841Z,101447.47
2023-02-09T15:08:35.069Z,101456.97
2023-02-09T15:11:28.927Z,101458.78
2023-02-09T15:14:03.843Z,101459.16
2023-02-09T15:16:31.768Z,101448.50
2023-02-09T15:18:58.991Z,101453.31
2023-02-09T15:21:25.892Z,101450.19
2023-02-09T15:23:52.880Z,101448.88
2023-02-09T15:26:22.620Z,101460.69
2023-02-09T15:28:49.757Z,101460.19
2023-02-09T15:31:16.758Z,101453.25
2023-02-09T15:33:43.838Z,101456.25
2023-02-09T15:36:18.143Z,101457.13
2023-02-09T15:38:45.089Z,101453.44
2023-02-09T15:41:30.556Z,101447.81
2023-02-09T15:44:16.165Z,101456.63
2023-02-09T15:47:04.500Z,101461.75
2023-02-09T15:49:31.899Z,101460.56
2023-02-09T15:51:58.832Z,101463.72
2023-02-09T15:54:31.668Z,101459.16
2023-02-09T15:57:00.250Z,101446.75
2023-02-09T15:59:27.142Z,101444.94
2023-02-09T16:01:54.084Z,101447.63
2023-02-09T16:04:21.014Z,101439.19
2023-02-09T16:06:53.923Z,101453.41
2023-02-09T16:09:27.657Z,101452.69
2023-02-09T16:11:54.871Z,101452.22
2023-02-09T16:14:26.049Z,101465.66
2023-02-09T16:16:53.138Z,101471.31
2023-02-09T16:19:21.189Z,101464.38
2023-02-09T16:21:54.007Z,101462.56
2023-02-09T16:24:33.467Z,101466.00
2023-02-09T16:27:04.411Z,101466.06
2023-02-09T16:29:31.325Z,101468.66
2023-02-09T16:31:58.226Z,101465.97
2023-02-09T16:34:25.164Z,101463.25
2023-02-09T16:36:52.154Z,101470.28
2023-02-09T16:39:21.926Z,101467.03
2023-02-09T16:41:51.638Z,101460.31
2023-02-09T16:44:23.304Z,101463.19
2023-02-09T16:46:56.360Z,101470.63
2023-02-09T16:49:34.784Z,101475.97
2023-02-09T16:52:11.662Z,101480.50
2023-02-09T16:54:46.914Z,101488.50
2023-02-09T16:57:18.133Z,101489.53
2023-02-09T16:59:45.592Z,101489.41
2023-02-09T17:02:36.025Z,101498.13
2023-02-09T17:05:19.029Z,101497.16
2023-02-09T17:07:54.606Z,101499.72
2023-02-09T17:10:28.664Z,101497.75
2023-02-09T17:12:55.757Z,101508.06
2023-02-09T17:15:31.019Z,101514.72
2023-02-09T17:18:07.216Z,101517.84
2023-02-09T17:20:42.989Z,101524.44
2023-02-09T17:23:21.360Z,101529.25
2023-02-09T17:25:51.485Z,101526.97
2023-02-09T17:28:19.268Z,101531.69
2023-02-09T17:30:47.892Z,101525.03
2023-02-09T17:33:34.392Z,101526.16
2023-02-09T17:38:50.506Z,101518.81
2023-02-09T17:41:28.202Z,101515.50
2023-02-09T17:43:58.816Z,101512.25
2023-02-09T17:46:27.812Z,101516.72
2023-02-09T17:48:54.787Z,101528.41
2023-02-09T17:51:37.328Z,101534.66
2023-02-09T17:54:06.038Z,101531.38
2023-02-09T17:56:33.434Z,101533.25
2023-02-09T17:59:02.976Z,101530.81
2023-02-09T18:01:31.774Z,101531.84
2023-02-09T18:04:01.987Z,101521.50
2023-02-09T18:06:39.728Z,101524.22
2023-02-09T18:09:10.806Z,101523.53
2023-02-09T18:11:57.903Z,101526.28
2023-02-09T18:14:26.495Z,101537.00
2023-02-09T18:16:55.012Z,101520.44
2023-02-09T18:19:23.969Z,101535.47
2023-02-09T18:21:59.806Z,101536.41
2023-02-09T18:24:30.918Z,101540.91
2023-02-09T18:26:57.995Z,101544.47
2023-02-09T18:29:31.623Z,101548.03
2023-02-09T18:32:00.698Z,101542.97
2023-02-09T18:34:28.433Z,101551.69
2023-02-09T18:36:55.702Z,101549.91
2023-02-09T18:39:22.723Z,101546.44
2023-02-09T18:41:54.067Z,101555.16
2023-02-09T18:44:28.910Z,101558.72
2023-02-09T18:47:00.606Z,101562.31
2023-02-09T18:49:28.125Z,101572.81
2023-02-09T18:51:56.935Z,101565.88
2023-02-09T18:54:23.917Z,101569.41
2023-02-09T18:56:52.675Z,101578.25
2023-02-09T18:59:19.630Z,101574.84
2023-02-09T19:01:46.730Z,101587.25
2023-02-09T19:04:13.747Z,101582.06
2023-02-09T19:06:40.675Z,101585.72
2023-02-09T19:09:07.668Z,101592.84
2023-02-09T19:11:35.629Z,101596.50
2023-02-09T19:14:20.836Z,101599.31
2023-02-09T19:16:47.753Z,101588.94
2023-02-09T19:19:16.043Z,101600.50
2023-02-09T19:21:42.975Z,101605.00
2023-02-09T19:24:09.886Z,101603.38
2023-02-09T19:26:36.819Z,101603.47
2023-02-09T19:29:03.722Z,101611.34
2023-02-09T19:31:30.709Z,101615.00
2023-02-09T19:33:57.909Z,101611.53
2023-02-09T19:36:27.786Z,101605.44
2023-02-09T19:38:56.253Z,101609.75
2023-02-09T19:41:25.446Z,101618.47
2023-02-09T19:43:57.327Z,101606.09
2023-02-09T19:46:25.398Z,101615.75
2023-02-09T19:48:53.756Z,101615.66
2023-02-09T19:51:21.165Z,101611.25
2023-02-09T19:53:48.524Z,101616.44
2023-02-09T19:56:19.240Z,101605.00
2023-02-09T19:58:46.719Z,101614.56
2023-02-09T20:01:13.632Z,101623.41
2023-02-09T20:03:40.599Z,101619.84
2023-02-09T20:06:10.700Z,101619.84
2023-02-09T20:08:38.165Z,101616.25
2023-02-09T20:11:16.645Z,101612.69
2023-02-09T20:13:43.686Z,101609.97
2023-02-09T20:16:16.817Z,101610.84
2023-02-09T20:18:44.523Z,101616.00
2023-02-09T20:21:12.435Z,101620.25
2023-02-09T20:23:39.351Z,101621.00
2023-02-09T20:26:12.690Z,101617.38
2023-02-09T20:28:39.849Z,101617.19
2023-02-09T20:31:08.050Z,101617.13
2023-02-09T20:33:37.538Z,101625.75
2023-02-09T20:36:09.164Z,101627.44
2023-02-09T20:38:37.213Z,101634.28
2023-02-09T20:41:10.423Z,101627.19
2023-02-09T20:43:56.658Z,101624.28
2023-02-09T20:46:45.094Z,101630.22
2023-02-09T20:49:14.784Z,101628.44
2023-02-09T20:51:42.059Z,101634.44
2023-02-09T20:54:09.435Z,101644.91
2023-02-09T20:56:36.607Z,101652.78
2023-02-09T20:59:05.618Z,101649.28
2023-02-09T21:01:33.015Z,101665.06
2023-02-09T21:04:00.370Z,101665.16
2023-02-09T21:06:27.881Z,101664.41
2023-02-09T21:08:55.277Z,101661.94
2023-02-09T21:11:22.315Z,101663.72
2023-02-09T21:13:49.245Z,101659.41
2023-02-09T21:16:16.556Z,101660.34
2023-02-09T21:18:45.658Z,101664.75
2023-02-09T21:21:16.797Z,101668.22
2023-02-09T21:23:44.236Z,101669.16
2023-02-09T21:26:16.461Z,101670.09
2023-02-09T21:28:43.961Z,101678.94
2023-02-09T21:31:17.055Z,101679.94
2023-02-09T21:33:44.302Z,101684.44
2023-02-09T21:36:11.283Z,101684.53
2023-02-09T21:38:41.439Z,101679.34
2023-02-09T21:41:37.422Z,101685.63
2023-02-09T21:44:05.779Z,101691.06
2023-02-09T21:46:34.432Z,101685.03
2023-02-09T21:49:01.691Z,101697.50
2023-02-09T21:51:28.603Z,101700.28
2023-02-09T21:53:55.578Z,101697.84
2023-02-09T21:56:22.556Z,101692.81
2023-02-09T21:58:49.558Z,101698.25
2023-02-09T22:01:16.637Z,101694.94
2023-02-09T22:03:43.891Z,101700.28
2023-02-09T22:06:11.220Z,101700.44
2023-02-09T22:08:38.159Z,101697.97
2023-02-09T22:11:06.136Z,101698.16
2023-02-09T22:13:33.977Z,101694.91
2023-02-09T22:16:05.883Z,101691.69
2023-02-09T22:18:33.378Z,101699.75
2023-02-09T22:21:00.451Z,101693.88
2023-02-09T22:23:27.419Z,101686.94
2023-02-09T22:26:02.173Z,101694.19
2023-02-09T22:28:29.365Z,101692.59
2023-02-09T22:30:56.958Z,101691.81
2023-02-09T22:33:24.137Z,101688.50
2023-02-09T22:35:51.060Z,101690.44
2023-02-09T22:38:17.996Z,101691.44
2023-02-09T22:40:44.907Z,101687.13
2023-02-09T22:43:11.792Z,101688.19
2023-02-09T22:45:38.689Z,101690.06
2023-02-09T22:48:05.778Z,101689.22
2023-02-09T22:50:32.799Z,101695.31
2023-02-09T22:52:59.792Z,101697.00
2023-02-09T22:55:26.714Z,101703.97
2023-02-09T22:57:53.653Z,101703.97
2023-02-09T23:00:20.671Z,101709.22
2023-02-09T23:02:48.725Z,101706.59
2023-02-09T23:05:15.707Z,101717.00
2023-02-09T23:07:45.034Z,101710.06
2023-02-09T23:10:12.741Z,101713.63
2023-02-09T23:12:39.755Z,101719.88
2023-02-09T23:15:07.525Z,101716.47
2023-02-09T23:17:34.472Z,101726.97
2023-02-09T23:20:01.363Z,101717.63
2023-02-09T23:22:28.277Z,101734.38
2023-02-09T23:24:55.217Z,101726.69
2023-02-09T23:27:22.159Z,101722.50
2023-02-09T23:29:49.104Z,101722.69
2023-02-09T23:32:16.005Z,101722.81
2023-02-09T23:34:42.959Z,101722.13
2023-02-09T23:37:18.564Z,101710.06
2023-02-09T23:39:55.788Z,101719.88
2023-02-09T23:42:22.779Z,101710.38
2023-02-09T23:44:49.686Z,101718.44
2023-02-09T23:47:16.703Z,101725.41
2023-02-09T23:49:43.666Z,101726.44
2023-02-09T23:52:10.608Z,101730.81
2023-02-09T23:54:37.526Z,101730.91
2023-02-09T23:57:04.458Z,101729.28
2023-02-09T23:59:31.379Z,101726.81
